10°C Temp
4°C Dewpoint
67% Humidity
Temperature
16 KM/H
10 MPH
9 KTS
50°
North East

Wind Speed
Clear
Conditions
Pressure 1018.92 (hPa) - 30.09 (in)
Visibility 6.2 (mi) - 10.0 (km)

Current Conditions
LIMP
Location 40(km)
Metar :LIMP 011550Z 05009KT 030V090 CAVOK 10/04 Q1019
Wed 1st April 16:50 pm

Airport
  Metar Aviation API Data Provided by https://www.checkwx.com/ PHP scripts by weather34.com ©2020